Time;durP1;ratioP1;P1;durP2;ratioP2;P2;SDS_P1;SDS_P2;PMS_P1;PMS_P2;Temp;Humidity;BMP_temperature;BMP_pressure;BME280_temperature;BME280_humidity;BME280_pressure;Samples;Min_cycle;Max_cycle;Signal;HPM_P1;HPM_P2
2022/05/03 00:02:28;;;;;;;;;;;20.80;38.40;;;;;;5058549;28;19920;-48
2022/05/03 00:05:00;;;;;;;;;;;20.80;38.40;;;;;;5076156;28;19920;-49
2022/05/03 00:07:28;;;;;;;;;;;20.80;38.40;;;;;;5055961;28;20011;-48
2022/05/03 00:10:04;;;;;;;;;;;20.80;38.40;;;;;;5057495;28;19920;-49
2022/05/03 00:12:33;;;;;;;;;;;20.80;38.40;;;;;;5057909;28;19920;-49
2022/05/03 00:15:00;;;;;;;;;;;20.80;38.40;;;;;;5056712;28;19921;-50
2022/05/03 00:17:27;;;;;;;;;;;20.80;38.40;;;;;;5075412;28;19950;-51
2022/05/03 00:19:54;;;;;;;;;;;20.80;38.40;;;;;;5074856;28;19920;-52
2022/05/03 00:22:22;;;;;;;;;;;20.80;38.40;;;;;;5056676;28;19970;-48
2022/05/03 00:24:54;;;;;;;;;;;20.80;38.40;;;;;;5056978;28;19920;-47
2022/05/03 00:27:21;;;;;;;;;;;20.80;38.40;;;;;;5057803;28;20005;-47
2022/05/03 00:29:48;;;;;;;;;;;20.80;38.50;;;;;;5074887;28;19944;-51
2022/05/03 00:32:14;;;;;;;;;;;20.70;38.30;;;;;;5058221;28;19928;-50
2022/05/03 00:34:41;;;;;;;;;;;20.80;38.40;;;;;;5073435;28;20007;-46
2022/05/03 00:37:08;;;;;;;;;;;20.80;38.50;;;;;;5057412;28;19988;-47
2022/05/03 00:39:36;;;;;;;;;;;20.80;38.40;;;;;;5055637;28;19921;-49
2022/05/03 00:42:04;;;;;;;;;;;20.80;38.40;;;;;;5056769;28;20338;-51
2022/05/03 00:47:17;;;;;;;;;;;20.80;38.50;;;;;;5055309;28;20346;-51
2022/05/03 00:49:47;;;;;;;;;;;20.80;38.40;;;;;;5057619;28;19921;-50
2022/05/03 00:52:17;;;;;;;;;;;20.70;38.40;;;;;;5074785;28;19987;-48
2022/05/03 00:54:47;;;;;;;;;;;20.80;38.40;;;;;;5057624;28;19927;-48
2022/05/03 00:57:23;;;;;;;;;;;20.80;38.40;;;;;;5058409;28;20380;-51
2022/05/03 01:00:05;;;;;;;;;;;20.80;38.50;;;;;;5076247;28;20423;-49
2022/05/03 01:02:35;;;;;;;;;;;20.80;38.50;;;;;;5057957;28;20238;-51
2022/05/03 01:05:06;;;;;;;;;;;20.80;38.50;;;;;;5058265;28;20015;-48
2022/05/03 01:07:33;;;;;;;;;;;20.80;38.50;;;;;;5075902;28;19921;-48
2022/05/03 01:10:04;;;;;;;;;;;20.80;38.40;;;;;;5076083;28;20388;-51
2022/05/03 01:12:36;;;;;;;;;;;20.80;38.40;;;;;;5075839;28;19924;-50
2022/05/03 01:15:09;;;;;;;;;;;20.80;38.50;;;;;;5058584;28;19921;-48
2022/05/03 01:17:43;;;;;;;;;;;20.80;38.50;;;;;;5058114;28;20023;-52
2022/05/03 01:20:10;;;;;;;;;;;20.80;38.50;;;;;;5075213;28;19924;-49
2022/05/03 01:22:45;;;;;;;;;;;20.80;38.50;;;;;;5057344;28;19970;-51
2022/05/03 01:25:18;;;;;;;;;;;20.80;38.50;;;;;;5075462;28;20019;-50
2022/05/03 01:27:49;;;;;;;;;;;20.80;38.50;;;;;;5059222;28;20027;-48
2022/05/03 01:30:17;;;;;;;;;;;20.80;39.20;;;;;;5061151;28;19928;-52
2022/05/03 01:32:44;;;;;;;;;;;20.80;38.60;;;;;;5061344;28;19970;-49
2022/05/03 01:35:12;;;;;;;;;;;20.80;38.60;;;;;;5060765;28;19921;-51
2022/05/03 01:37:44;;;;;;;;;;;20.80;38.60;;;;;;5061387;28;19926;-50
2022/05/03 01:40:12;;;;;;;;;;;20.80;38.60;;;;;;5060879;28;19920;-49
2022/05/03 01:42:46;;;;;;;;;;;20.80;38.60;;;;;;5060444;28;19920;-48
2022/05/03 01:45:12;;;;;;;;;;;20.80;38.60;;;;;;5060904;28;19974;-51
2022/05/03 01:47:46;;;;;;;;;;;20.80;38.60;;;;;;5060948;28;19929;-49
2022/05/03 01:50:20;;;;;;;;;;;20.80;38.60;;;;;;5078180;28;20019;-50
2022/05/03 01:52:56;;;;;;;;;;;20.80;38.70;;;;;;5061206;28;19966;-48
2022/05/03 01:55:31;;;;;;;;;;;20.80;38.70;;;;;;5060873;28;19921;-53
2022/05/03 01:58:00;;;;;;;;;;;20.80;38.60;;;;;;5060150;28;19922;-47
2022/05/03 02:00:27;;;;;;;;;;;20.80;38.70;;;;;;5060969;28;19944;-50
2022/05/03 02:02:57;;;;;;;;;;;20.80;38.70;;;;;;5077851;28;19927;-48
2022/05/03 02:05:41;;;;;;;;;;;20.80;38.70;;;;;;5059558;28;20388;-50
2022/05/03 02:08:08;;;;;;;;;;;20.70;38.50;;;;;;5060139;28;19926;-51
2022/05/03 02:10:53;;;;;;;;;;;20.80;38.60;;;;;;5059890;28;19928;-50
2022/05/03 02:13:28;;;;;;;;;;;20.80;38.60;;;;;;5049953;28;19924;-52
2022/05/03 02:15:55;;;;;;;;;;;20.80;38.70;;;;;;5060716;28;19927;-48
2022/05/03 02:18:25;;;;;;;;;;;20.70;38.50;;;;;;5061491;28;19927;-48
2022/05/03 02:21:11;;;;;;;;;;;20.80;38.70;;;;;;5060813;28;19927;-50
2022/05/03 02:23:41;;;;;;;;;;;20.80;38.70;;;;;;5078003;28;19920;-51
2022/05/03 02:26:14;;;;;;;;;;;20.80;38.70;;;;;;5060710;28;19920;-49
2022/05/03 02:28:42;;;;;;;;;;;20.80;38.70;;;;;;5059460;28;20017;-51
2022/05/03 02:31:10;;;;;;;;;;;20.80;38.70;;;;;;5058859;28;19921;-51
2022/05/03 02:33:38;;;;;;;;;;;20.80;38.70;;;;;;5058836;28;19920;-52
2022/05/03 02:36:05;;;;;;;;;;;20.80;38.70;;;;;;5059421;28;20321;-48
2022/05/03 02:38:35;;;;;;;;;;;20.70;38.60;;;;;;5059198;28;19930;-48
2022/05/03 02:41:03;;;;;;;;;;;20.80;38.70;;;;;;5058910;28;19943;-47
2022/05/03 02:43:30;;;;;;;;;;;20.80;38.70;;;;;;5059166;28;20354;-47
2022/05/03 02:46:00;;;;;;;;;;;20.70;38.60;;;;;;5058353;28;19921;-48
2022/05/03 02:48:28;;;;;;;;;;;20.80;38.70;;;;;;5076981;28;19920;-50
2022/05/03 02:50:58;;;;;;;;;;;20.70;38.60;;;;;;5058693;28;19921;-48
2022/05/03 02:53:27;;;;;;;;;;;20.80;38.70;;;;;;5059333;28;19974;-47
2022/05/03 02:55:54;;;;;;;;;;;20.80;38.70;;;;;;5059035;28;20006;-47
2022/05/03 02:58:26;;;;;;;;;;;20.80;38.70;;;;;;5076827;28;19924;-48
2022/05/03 03:03:45;;;;;;;;;;;20.70;38.60;;;;;;5058678;28;19920;-51
2022/05/03 03:06:18;;;;;;;;;;;20.80;38.70;;;;;;5076686;28;19920;-50
2022/05/03 03:08:45;;;;;;;;;;;20.70;38.70;;;;;;5057966;28;19926;-45
2022/05/03 03:11:13;;;;;;;;;;;20.80;38.70;;;;;;5059002;28;20339;-47
2022/05/03 03:13:47;;;;;;;;;;;20.70;38.60;;;;;;5058952;28;19921;-47
2022/05/03 03:16:14;;;;;;;;;;;20.70;38.70;;;;;;5059010;28;19921;-46
2022/05/03 03:18:41;;;;;;;;;;;20.70;38.70;;;;;;5059830;28;19925;-49
2022/05/03 03:21:07;;;;;;;;;;;20.70;38.70;;;;;;5059935;28;19920;-47
2022/05/03 03:23:35;;;;;;;;;;;20.70;38.70;;;;;;5059410;28;19924;-46
2022/05/03 03:26:02;;;;;;;;;;;20.70;38.70;;;;;;5058688;28;19920;-46
2022/05/03 03:28:29;;;;;;;;;;;20.70;38.70;;;;;;5076344;28;19964;-48
2022/05/03 03:30:56;;;;;;;;;;;20.70;38.70;;;;;;5075094;28;19920;-48
2022/05/03 03:33:22;;;;;;;;;;;20.70;38.70;;;;;;5058127;28;19921;-46
2022/05/03 03:35:49;;;;;;;;;;;20.70;38.70;;;;;;5057877;28;20320;-49
2022/05/03 03:38:16;;;;;;;;;;;20.70;38.70;;;;;;5059196;28;20011;-47
2022/05/03 03:40:46;;;;;;;;;;;20.70;38.70;;;;;;5076461;28;19927;-49
2022/05/03 03:43:13;;;;;;;;;;;20.70;38.70;;;;;;5076145;28;19950;-46
2022/05/03 03:45:40;;;;;;;;;;;20.70;38.70;;;;;;5075835;28;19921;-47
2022/05/03 03:48:07;;;;;;;;;;;20.70;38.60;;;;;;5058381;28;20328;-45
2022/05/03 03:50:33;;;;;;;;;;;20.70;38.70;;;;;;5075667;28;20011;-46
2022/05/03 03:53:00;;;;;;;;;;;20.70;38.70;;;;;;5076462;28;19920;-46
2022/05/03 03:55:27;;;;;;;;;;;20.70;38.60;;;;;;5076178;28;19921;-46
2022/05/03 03:57:55;;;;;;;;;;;20.70;38.60;;;;;;5076447;28;19927;-51
2022/05/03 04:00:23;;;;;;;;;;;20.70;38.70;;;;;;5075489;28;20019;-48
2022/05/03 04:02:50;;;;;;;;;;;20.70;38.70;;;;;;5076485;28;19928;-50
2022/05/03 04:05:17;;;;;;;;;;;20.70;38.70;;;;;;5076699;28;19963;-48
2022/05/03 04:07:44;;;;;;;;;;;20.70;38.70;;;;;;5058730;28;20015;-51
2022/05/03 04:10:10;;;;;;;;;;;20.70;38.70;;;;;;5076073;28;19927;-47
2022/05/03 04:12:37;;;;;;;;;;;20.70;38.70;;;;;;5057852;28;19955;-46
2022/05/03 04:15:06;;;;;;;;;;;20.70;38.70;;;;;;5058228;28;20315;-48
2022/05/03 04:17:32;;;;;;;;;;;20.70;38.70;;;;;;5075676;28;19925;-47
2022/05/03 04:19:59;;;;;;;;;;;20.70;38.70;;;;;;5058865;28;19968;-50
2022/05/03 04:22:26;;;;;;;;;;;20.70;38.70;;;;;;5075135;28;20369;-50
2022/05/03 04:24:53;;;;;;;;;;;20.70;38.70;;;;;;5074336;28;20023;-49
2022/05/03 04:27:20;;;;;;;;;;;20.70;38.70;;;;;;5057536;28;20357;-48
2022/05/03 04:29:47;;;;;;;;;;;20.70;38.70;;;;;;5074989;28;19966;-46
2022/05/03 04:32:15;;;;;;;;;;;20.70;38.70;;;;;;5075130;28;19942;-50
2022/05/03 04:34:41;;;;;;;;;;;20.70;38.70;;;;;;5075829;28;19963;-47
2022/05/03 04:37:08;;;;;;;;;;;20.70;38.70;;;;;;5076202;28;19971;-49
2022/05/03 04:39:35;;;;;;;;;;;20.70;38.70;;;;;;5057974;28;20015;-48
2022/05/03 04:42:01;;;;;;;;;;;20.70;38.70;;;;;;5057564;28;20011;-49
2022/05/03 04:44:28;;;;;;;;;;;20.70;38.70;;;;;;5056842;28;20015;-48
2022/05/03 04:46:54;;;;;;;;;;;20.70;38.70;;;;;;5074522;28;19926;-51
2022/05/03 04:49:22;;;;;;;;;;;20.70;38.70;;;;;;5056811;28;19921;-46
2022/05/03 04:51:49;;;;;;;;;;;20.70;38.70;;;;;;5074521;28;19970;-48
2022/05/03 04:54:16;;;;;;;;;;;20.70;39.30;;;;;;5075006;28;19928;-50
2022/05/03 04:56:45;;;;;;;;;;;20.70;38.70;;;;;;5057418;28;20011;-51
2022/05/03 04:59:12;;;;;;;;;;;20.70;38.70;;;;;;5056649;28;19970;-47
2022/05/03 05:01:39;;;;;;;;;;;20.70;38.70;;;;;;5059668;28;19921;-51
2022/05/03 05:04:05;;;;;;;;;;;20.70;38.70;;;;;;5060718;28;19920;-52
2022/05/03 05:06:33;;;;;;;;;;;20.70;38.70;;;;;;5060902;28;19927;-49
2022/05/03 05:09:00;;;;;;;;;;;20.70;38.70;;;;;;5076639;28;19921;-53
2022/05/03 05:11:27;;;;;;;;;;;20.70;38.70;;;;;;5060872;28;20427;-48
2022/05/03 05:13:53;;;;;;;;;;;20.70;38.70;;;;;;5060667;28;19967;-53
2022/05/03 05:16:20;;;;;;;;;;;20.70;38.70;;;;;;5061039;28;20015;-49
2022/05/03 05:18:47;;;;;;;;;;;20.70;38.70;;;;;;5079319;28;19943;-50
2022/05/03 05:21:13;;;;;;;;;;;20.70;38.70;;;;;;5077975;28;20254;-48
2022/05/03 05:23:42;;;;;;;;;;;20.70;38.70;;;;;;5060573;28;20241;-52
2022/05/03 05:26:08;;;;;;;;;;;20.70;38.70;;;;;;5060425;28;19920;-48
2022/05/03 05:28:35;;;;;;;;;;;20.70;38.70;;;;;;5059541;28;20019;-48
2022/05/03 05:31:01;;;;;;;;;;;20.70;38.70;;;;;;5059289;28;19927;-48
2022/05/03 05:33:28;;;;;;;;;;;20.70;38.70;;;;;;5061008;28;19983;-51
2022/05/03 05:35:56;;;;;;;;;;;20.70;38.70;;;;;;5060201;28;20015;-50
2022/05/03 05:38:22;;;;;;;;;;;20.70;38.70;;;;;;5059973;28;19927;-48
2022/05/03 05:40:52;;;;;;;;;;;20.70;38.70;;;;;;5060477;28;20242;-49
2022/05/03 05:43:18;;;;;;;;;;;20.70;38.70;;;;;;5077748;28;19971;-49
2022/05/03 05:45:45;;;;;;;;;;;20.70;38.70;;;;;;5059095;28;20285;-48
2022/05/03 05:48:12;;;;;;;;;;;20.70;38.70;;;;;;5059265;28;19921;-48
2022/05/03 05:50:39;;;;;;;;;;;20.70;38.70;;;;;;5059425;28;19943;-49
2022/05/03 05:55:51;;;;;;;;;;;20.70;38.70;;;;;;5059273;28;19928;-46
2022/05/03 05:58:19;;;;;;;;;;;20.80;38.70;;;;;;5059955;28;20381;-48
2022/05/03 06:00:45;;;;;;;;;;;20.70;38.70;;;;;;5077507;28;19928;-50
2022/05/03 06:03:13;;;;;;;;;;;20.70;38.70;;;;;;5059386;28;20391;-49
2022/05/03 06:05:40;;;;;;;;;;;20.70;38.70;;;;;;5059655;28;19920;-48
2022/05/03 06:08:07;;;;;;;;;;;20.70;38.70;;;;;;5060067;28;19921;-47
2022/05/03 06:10:33;;;;;;;;;;;20.70;38.70;;;;;;5077233;28;19978;-50
2022/05/03 06:13:02;;;;;;;;;;;20.70;38.70;;;;;;5059088;28;19921;-48
2022/05/03 06:15:29;;;;;;;;;;;20.70;38.70;;;;;;5059406;28;19928;-51
2022/05/03 06:17:56;;;;;;;;;;;20.70;38.70;;;;;;5059876;28;19927;-49
2022/05/03 06:20:22;;;;;;;;;;;20.70;38.70;;;;;;5059998;28;19970;-48
2022/05/03 06:22:49;;;;;;;;;;;20.70;38.70;;;;;;5059074;28;20281;-46
2022/05/03 06:25:16;;;;;;;;;;;20.70;38.70;;;;;;5059440;28;20376;-50
2022/05/03 06:27:42;;;;;;;;;;;20.70;38.70;;;;;;5059687;28;20380;-47
2022/05/03 06:30:11;;;;;;;;;;;20.70;38.70;;;;;;5057630;28;19924;-48
2022/05/03 06:32:40;;;;;;;;;;;20.70;38.70;;;;;;5059042;28;19974;-51
2022/05/03 06:35:08;;;;;;;;;;;20.80;38.80;;;;;;5057121;28;20435;-46
2022/05/03 06:37:36;;;;;;;;;;;20.80;38.80;;;;;;5058946;28;19924;-47
2022/05/03 06:40:03;;;;;;;;;;;20.70;38.70;;;;;;5058923;28;19980;-47
2022/05/03 06:42:29;;;;;;;;;;;20.80;38.80;;;;;;5058990;28;19966;-51
2022/05/03 06:45:00;;;;;;;;;;;20.80;38.90;;;;;;5076977;28;20383;-49
2022/05/03 06:47:28;;;;;;;;;;;20.70;38.70;;;;;;5076712;28;19921;-51
2022/05/03 06:49:54;;;;;;;;;;;20.80;38.80;;;;;;5077197;28;19925;-50
2022/05/03 06:52:21;;;;;;;;;;;20.80;38.80;;;;;;5076317;28;20338;-48
2022/05/03 06:54:47;;;;;;;;;;;20.80;38.90;;;;;;5057794;28;19921;-45
2022/05/03 06:57:14;;;;;;;;;;;20.80;38.90;;;;;;5057792;28;20376;-47
2022/05/03 06:59:41;;;;;;;;;;;20.70;38.90;;;;;;5075046;28;20298;-46
2022/05/03 07:02:08;;;;;;;;;;;20.70;38.90;;;;;;5082756;28;19973;-48
2022/05/03 07:04:36;;;;;;;;;;;20.70;39.00;;;;;;5076997;28;20358;-49
2022/05/03 07:07:03;;;;;;;;;;;20.70;39.00;;;;;;5094385;28;19966;-49
2022/05/03 07:09:30;;;;;;;;;;;20.70;39.00;;;;;;5094610;28;19924;-50
2022/05/03 07:11:57;;;;;;;;;;;20.70;39.00;;;;;;5076532;28;20010;-47
2022/05/03 07:14:23;;;;;;;;;;;20.70;39.10;;;;;;5094834;28;20017;-49
2022/05/03 07:16:50;;;;;;;;;;;20.70;39.10;;;;;;5093243;28;19969;-50
2022/05/03 07:24:52;;;;;;;;;;;20.70;39.00;;;;;;5092402;28;19920;-47
2022/05/03 07:27:19;;;;;;;;;;;20.70;39.10;;;;;;5077417;28;19920;-52
2022/05/03 07:29:45;;;;;;;;;;;20.60;39.00;;;;;;5076927;28;19924;-46
2022/05/03 07:32:12;;;;;;;;;;;20.60;39.00;;;;;;5077491;28;20303;-46
2022/05/03 07:34:39;;;;;;;;;;;20.60;39.00;;;;;;5077782;28;19920;-45
2022/05/03 07:37:07;;;;;;;;;;;20.60;39.00;;;;;;5076785;28;19963;-47
2022/05/03 07:39:33;;;;;;;;;;;20.60;39.00;;;;;;5077050;28;19924;-46
2022/05/03 07:42:00;;;;;;;;;;;20.60;39.00;;;;;;5076526;28;20361;-46
2022/05/03 07:44:27;;;;;;;;;;;20.60;39.00;;;;;;5094526;28;19985;-47
2022/05/03 07:46:53;;;;;;;;;;;20.60;39.00;;;;;;5094003;28;19924;-45
2022/05/03 07:49:20;;;;;;;;;;;20.60;39.00;;;;;;5076413;28;20319;-50
2022/05/03 07:51:47;;;;;;;;;;;20.60;39.10;;;;;;5076953;28;19971;-51
2022/05/03 07:54:15;;;;;;;;;;;20.50;39.00;;;;;;5093075;28;19924;-49
2022/05/03 07:56:41;;;;;;;;;;;20.60;39.20;;;;;;5094437;28;19966;-49
2022/05/03 07:59:09;;;;;;;;;;;20.60;39.20;;;;;;5076617;28;19920;-49
2022/05/03 08:01:37;;;;;;;;;;;20.60;39.20;;;;;;5094129;28;19935;-51
2022/05/03 08:04:03;;;;;;;;;;;20.60;39.20;;;;;;5092768;28;19920;-50
2022/05/03 08:06:30;;;;;;;;;;;20.60;39.30;;;;;;5094311;28;19920;-50
2022/05/03 08:08:57;;;;;;;;;;;20.60;39.20;;;;;;5094300;28;20022;-50
2022/05/03 08:11:25;;;;;;;;;;;20.60;39.20;;;;;;5093238;28;19920;-52
2022/05/03 08:13:52;;;;;;;;;;;20.60;39.30;;;;;;5094205;28;19920;-50
2022/05/03 08:16:19;;;;;;;;;;;20.60;39.30;;;;;;5094187;28;20280;-50
2022/05/03 08:18:46;;;;;;;;;;;20.60;39.30;;;;;;5092900;28;19931;-52
2022/05/03 08:21:12;;;;;;;;;;;20.60;39.30;;;;;;5059815;28;20276;-49
2022/05/03 08:23:39;;;;;;;;;;;20.60;39.30;;;;;;5076626;28;19969;-49
2022/05/03 08:26:06;;;;;;;;;;;20.60;39.30;;;;;;5076729;28;19931;-52
2022/05/03 08:28:34;;;;;;;;;;;20.60;39.30;;;;;;5076422;28;20337;-47
2022/05/03 08:31:03;;;;;;;;;;;20.60;39.30;;;;;;5075693;28;19960;-48
2022/05/03 08:33:29;;;;;;;;;;;20.60;39.40;;;;;;5076244;28;20053;-47
2022/05/03 08:35:56;;;;;;;;;;;20.60;39.40;;;;;;5093604;28;19924;-49
2022/05/03 08:43:52;;;;;;;;;;;20.60;39.40;;;;;;5079677;28;20386;-52
2022/05/03 08:46:20;;;;;;;;;;;20.60;39.40;;;;;;5079783;28;20369;-48
2022/05/03 08:48:47;;;;;;;;;;;20.60;39.40;;;;;;5097879;28;19926;-53
2022/05/03 08:51:15;;;;;;;;;;;20.60;39.50;;;;;;5080337;28;20020;-51
2022/05/03 08:53:42;;;;;;;;;;;20.60;39.40;;;;;;5079501;28;19920;-50
2022/05/03 08:56:08;;;;;;;;;;;20.60;39.50;;;;;;5097682;28;19974;-50
2022/05/03 08:58:35;;;;;;;;;;;20.60;39.50;;;;;;5098175;28;20006;-49
2022/05/03 09:01:04;;;;;;;;;;;20.60;39.50;;;;;;5078886;28;19943;-50
2022/05/03 09:03:30;;;;;;;;;;;20.60;39.60;;;;;;5081674;28;19924;-44
2022/05/03 09:05:57;;;;;;;;;;;20.60;39.60;;;;;;5101514;28;19920;-51
2022/05/03 09:08:24;;;;;;;;;;;20.50;39.50;;;;;;5080907;28;19928;-48
2022/05/03 09:10:51;;;;;;;;;;;20.50;39.50;;;;;;5098821;28;19951;-47
2022/05/03 09:13:18;;;;;;;;;;;20.60;39.50;;;;;;5080564;28;20261;-48
2022/05/03 09:15:45;;;;;;;;;;;20.60;39.50;;;;;;5080677;28;20246;-46
2022/05/03 09:18:21;;;;;;;;;;;20.60;39.40;;;;;;5099270;28;20327;-48
2022/05/03 09:23:50;;;;;;;;;;;20.60;39.40;;;;;;5100693;28;19966;-46
2022/05/03 09:26:17;;;;;;;;;;;20.60;39.30;;;;;;5081720;28;19930;-44
2022/05/03 09:28:45;;;;;;;;;;;20.60;39.30;;;;;;5080258;28;19969;-44
2022/05/03 09:31:11;;;;;;;;;;;20.60;39.30;;;;;;5082124;28;19943;-48
2022/05/03 09:33:39;;;;;;;;;;;20.60;39.30;;;;;;5098962;28;19927;-47
2022/05/03 09:36:10;;;;;;;;;;;20.60;39.30;;;;;;5099957;28;19931;-46
2022/05/03 09:38:44;;;;;;;;;;;20.70;39.30;;;;;;5082913;28;19924;-47
2022/05/03 09:41:15;;;;;;;;;;;20.70;39.30;;;;;;5081354;28;19920;-47
2022/05/03 09:44:00;;;;;;;;;;;20.70;39.30;;;;;;5083190;28;19927;-49
2022/05/03 09:46:27;;;;;;;;;;;20.70;39.30;;;;;;5098096;28;19959;-49
2022/05/03 09:48:55;;;;;;;;;;;20.70;39.30;;;;;;5080466;28;20011;-47
2022/05/03 09:51:22;;;;;;;;;;;20.70;39.30;;;;;;5082900;28;20015;-46
2022/05/03 09:53:55;;;;;;;;;;;20.70;39.30;;;;;;5103269;28;19927;-50
2022/05/03 09:56:22;;;;;;;;;;;20.70;39.30;;;;;;5082846;28;19920;-48
2022/05/03 09:58:49;;;;;;;;;;;20.70;39.30;;;;;;5082475;28;19970;-47
2022/05/03 10:01:15;;;;;;;;;;;20.70;39.30;;;;;;5084094;28;19920;-45
2022/05/03 10:03:42;;;;;;;;;;;20.70;39.30;;;;;;5100203;28;19924;-45
2022/05/03 10:06:10;;;;;;;;;;;20.80;39.40;;;;;;5097084;28;19980;-48
2022/05/03 10:08:37;;;;;;;;;;;20.80;39.40;;;;;;5082215;28;19993;-49
2022/05/03 10:11:04;;;;;;;;;;;20.80;39.40;;;;;;5081041;28;19947;-48
2022/05/03 10:13:30;;;;;;;;;;;20.80;39.40;;;;;;5081228;28;19920;-46
2022/05/03 10:21:30;;;;;;;;;;;20.80;39.50;;;;;;5082145;28;19920;-51
2022/05/03 10:24:04;;;;;;;;;;;20.80;39.40;;;;;;5082218;28;19927;-49
2022/05/03 10:26:49;;;;;;;;;;;20.80;39.40;;;;;;5099833;28;19920;-49
2022/05/03 10:29:16;;;;;;;;;;;20.80;39.40;;;;;;5044112;28;19921;-48
2022/05/03 10:31:53;;;;;;;;;;;20.80;39.40;;;;;;5062435;28;19959;-49
2022/05/03 10:34:37;;;;;;;;;;;20.90;40.10;;;;;;5044055;28;20020;-49
2022/05/03 10:37:05;;;;;;;;;;;20.90;39.50;;;;;;5052196;28;20023;-50
2022/05/03 10:39:32;;;;;;;;;;;20.80;39.30;;;;;;5062590;28;19924;-49
2022/05/03 10:41:59;;;;;;;;;;;20.90;39.40;;;;;;5044747;28;19925;-49
2022/05/03 10:44:38;;;;;;;;;;;20.90;39.40;;;;;;5044994;28;20250;-47
2022/05/03 10:47:05;;;;;;;;;;;20.90;39.40;;;;;;5061401;28;19947;-48
2022/05/03 10:49:31;;;;;;;;;;;20.90;39.40;;;;;;5061891;28;20016;-49
2022/05/03 10:51:58;;;;;;;;;;;20.90;39.40;;;;;;5027412;28;19928;-47
2022/05/03 10:54:26;;;;;;;;;;;20.90;39.40;;;;;;5040066;28;19921;-47
2022/05/03 10:57:02;;;;;;;;;;;20.90;39.40;;;;;;5038898;28;19921;-47
2022/05/03 10:59:44;;;;;;;;;;;20.90;39.30;;;;;;5044686;28;19955;-48
2022/05/03 11:02:11;;;;;;;;;;;20.90;39.40;;;;;;5078608;28;19959;-48
2022/05/03 11:04:58;;;;;;;;;;;20.90;39.30;;;;;;5058197;28;20090;-51
2022/05/03 11:07:25;;;;;;;;;;;20.90;39.30;;;;;;5060419;28;19974;-50
2022/05/03 11:09:53;;;;;;;;;;;20.90;39.20;;;;;;5060072;28;19971;-50
2022/05/03 11:12:19;;;;;;;;;;;20.90;39.10;;;;;;5060140;28;19928;-51
2022/05/03 11:14:47;;;;;;;;;;;20.90;39.10;;;;;;5079241;28;20411;-51
2022/05/03 11:17:13;;;;;;;;;;;20.90;39.00;;;;;;5060988;28;19931;-47
2022/05/03 11:19:47;;;;;;;;;;;20.80;38.90;;;;;;5062326;28;19926;-50
2022/05/03 11:22:14;;;;;;;;;;;20.90;39.00;;;;;;5063563;28;19987;-49
2022/05/03 11:24:41;;;;;;;;;;;20.80;38.90;;;;;;5060905;28;19931;-50
2022/05/03 11:27:10;;;;;;;;;;;20.90;38.90;;;;;;5060587;28;19981;-51
2022/05/03 11:29:37;;;;;;;;;;;20.80;38.80;;;;;;5062299;28;19969;-49
2022/05/03 11:32:06;;;;;;;;;;;20.90;38.80;;;;;;5060628;28;19962;-48
2022/05/03 11:34:32;;;;;;;;;;;20.80;38.70;;;;;;5060423;28;20334;-46
2022/05/03 11:37:00;;;;;;;;;;;20.90;38.70;;;;;;5058542;28;20002;-48
2022/05/03 11:39:26;;;;;;;;;;;20.80;38.60;;;;;;5058873;28;19968;-47
2022/05/03 11:41:53;;;;;;;;;;;20.90;38.60;;;;;;5058459;28;19970;-49
2022/05/03 11:44:21;;;;;;;;;;;20.80;38.50;;;;;;5078619;28;20006;-49
2022/05/03 11:46:48;;;;;;;;;;;20.80;38.50;;;;;;5045789;28;19924;-46
2022/05/03 11:49:15;;;;;;;;;;;20.80;38.50;;;;;;5059125;28;19920;-49
2022/05/03 11:57:12;;;;;;;;;;;20.80;38.30;;;;;;5057298;28;19927;-46
2022/05/03 11:59:40;;;;;;;;;;;20.80;38.30;;;;;;5060260;28;19925;-49
2022/05/03 12:02:17;;;;;;;;;;;20.80;38.30;;;;;;5077568;28;19920;-46
2022/05/03 12:05:00;;;;;;;;;;;20.80;38.20;;;;;;5058603;28;19920;-52
2022/05/03 12:07:26;;;;;;;;;;;20.80;38.20;;;;;;5074852;28;20030;-49
2022/05/03 12:09:53;;;;;;;;;;;20.80;38.10;;;;;;5074792;28;19928;-50
2022/05/03 12:15:22;;;;;;;;;;;20.80;38.00;;;;;;5075807;28;20285;-46
2022/05/03 12:17:54;;;;;;;;;;;20.80;38.00;;;;;;5071072;28;19931;-49
2022/05/03 12:20:21;;;;;;;;;;;20.80;38.00;;;;;;5057701;28;20019;-48
2022/05/03 12:23:02;;;;;;;;;;;20.80;38.00;;;;;;5056593;28;19920;-48
2022/05/03 12:25:29;;;;;;;;;;;20.80;37.90;;;;;;5057047;28;19931;-48
2022/05/03 12:27:56;;;;;;;;;;;20.80;37.90;;;;;;5057994;28;19920;-48
2022/05/03 12:30:22;;;;;;;;;;;20.80;37.80;;;;;;5056101;28;20337;-50
2022/05/03 12:32:49;;;;;;;;;;;20.80;37.70;;;;;;5058007;28;19974;-48
2022/05/03 12:35:17;;;;;;;;;;;20.80;37.70;;;;;;5074450;28;19921;-49
2022/05/03 12:37:51;;;;;;;;;;;20.80;37.60;;;;;;5056079;28;19920;-46
2022/05/03 12:40:23;;;;;;;;;;;20.80;37.60;;;;;;5074791;28;19921;-50
2022/05/03 12:42:50;;;;;;;;;;;20.70;37.50;;;;;;5074838;28;19928;-48
2022/05/03 12:45:19;;;;;;;;;;;20.80;37.60;;;;;;5074644;28;19924;-47
2022/05/03 12:47:46;;;;;;;;;;;20.80;37.60;;;;;;5058756;28;19920;-48
2022/05/03 12:50:13;;;;;;;;;;;20.80;37.60;;;;;;5056363;28;20412;-47
2022/05/03 12:52:41;;;;;;;;;;;20.80;37.60;;;;;;5057904;28;19992;-46
2022/05/03 12:55:08;;;;;;;;;;;20.80;37.60;;;;;;5058171;28;20361;-48
2022/05/03 13:00:19;;;;;;;;;;;20.80;37.60;;;;;;5056903;28;20032;-46
2022/05/03 13:02:46;;;;;;;;;;;20.70;37.50;;;;;;5057871;28;20024;-46
2022/05/03 13:05:13;;;;;;;;;;;20.80;37.50;;;;;;5057150;28;19946;-46
2022/05/03 13:07:41;;;;;;;;;;;20.80;37.50;;;;;;5057002;28;19969;-49
2022/05/03 13:10:08;;;;;;;;;;;20.80;37.40;;;;;;5056576;28;19920;-47
2022/05/03 13:12:35;;;;;;;;;;;20.80;37.40;;;;;;5078040;28;19952;-48
2022/05/03 13:15:02;;;;;;;;;;;20.80;37.40;;;;;;5058639;28;19936;-46
2022/05/03 13:17:29;;;;;;;;;;;20.80;37.30;;;;;;5059713;28;20437;-46
2022/05/03 13:19:56;;;;;;;;;;;20.80;37.30;;;;;;5060817;28;19927;-47
2022/05/03 13:22:23;;;;;;;;;;;20.80;37.30;;;;;;5080233;28;19920;-47
2022/05/03 13:24:51;;;;;;;;;;;20.80;37.30;;;;;;5063300;28;19924;-48
2022/05/03 13:27:17;;;;;;;;;;;20.80;37.30;;;;;;5077304;28;20002;-49
2022/05/03 13:29:44;;;;;;;;;;;20.80;37.20;;;;;;5080115;28;19920;-47
2022/05/03 13:32:11;;;;;;;;;;;20.80;37.30;;;;;;5080236;28;20015;-48
2022/05/03 13:34:37;;;;;;;;;;;20.80;37.20;;;;;;5060306;28;19986;-50
2022/05/03 13:42:34;;;;;;;;;;;20.80;37.20;;;;;;5078711;28;20006;-49
2022/05/03 13:45:01;;;;;;;;;;;20.80;37.20;;;;;;5058785;28;19927;-46
2022/05/03 13:47:27;;;;;;;;;;;20.80;37.30;;;;;;5060040;28;19973;-46
2022/05/03 13:49:54;;;;;;;;;;;20.80;37.20;;;;;;5058490;28;19993;-46
2022/05/03 13:52:21;;;;;;;;;;;20.80;37.20;;;;;;5077186;28;20016;-51
2022/05/03 13:54:48;;;;;;;;;;;20.80;37.20;;;;;;5060338;28;20070;-49
2022/05/03 13:57:14;;;;;;;;;;;20.80;37.20;;;;;;5077634;28;19966;-48
2022/05/03 13:59:42;;;;;;;;;;;20.80;37.20;;;;;;5059800;28;20407;-47
2022/05/03 14:02:09;;;;;;;;;;;20.80;37.20;;;;;;5058958;28;19998;-47
2022/05/03 14:04:36;;;;;;;;;;;20.80;37.20;;;;;;5058838;28;19920;-52
2022/05/03 14:07:02;;;;;;;;;;;20.80;37.20;;;;;;5077535;28;19999;-48
2022/05/03 14:09:29;;;;;;;;;;;20.80;37.20;;;;;;5058230;28;19925;-45
2022/05/03 14:11:58;;;;;;;;;;;20.80;37.10;;;;;;5061732;28;19920;-51
2022/05/03 14:14:24;;;;;;;;;;;20.80;37.10;;;;;;5077747;28;20370;-53
2022/05/03 14:16:52;;;;;;;;;;;20.80;37.10;;;;;;5060834;28;19921;-47
2022/05/03 14:19:19;;;;;;;;;;;20.80;37.10;;;;;;5059302;28;20000;-47
2022/05/03 14:21:48;;;;;;;;;;;20.80;37.10;;;;;;5058598;28;19958;-51
2022/05/03 14:24:14;;;;;;;;;;;20.80;37.10;;;;;;5058932;28;19920;-48
2022/05/03 14:26:41;;;;;;;;;;;20.80;37.10;;;;;;5058672;28;20043;-51
2022/05/03 14:29:08;;;;;;;;;;;20.80;37.10;;;;;;5077954;28;19960;-52
2022/05/03 14:31:36;;;;;;;;;;;20.80;37.00;;;;;;5059340;28;20357;-48
2022/05/03 14:34:05;;;;;;;;;;;20.80;37.10;;;;;;5059328;28;19928;-53
2022/05/03 14:36:32;;;;;;;;;;;20.80;37.00;;;;;;5058158;28;19978;-55
2022/05/03 14:38:58;;;;;;;;;;;20.80;37.00;;;;;;5076017;28;19920;-54
2022/05/03 14:41:25;;;;;;;;;;;20.80;36.90;;;;;;5058688;28;20357;-50
2022/05/03 14:43:52;;;;;;;;;;;20.80;36.80;;;;;;5058095;28;20255;-51
2022/05/03 14:46:18;;;;;;;;;;;20.80;36.50;;;;;;5058003;28;19956;-51
2022/05/03 14:48:45;;;;;;;;;;;20.80;36.50;;;;;;5057704;28;19955;-54
2022/05/03 14:51:13;;;;;;;;;;;20.80;36.30;;;;;;5057492;28;20377;-52
2022/05/03 14:53:40;;;;;;;;;;;20.80;36.40;;;;;;5057971;28;19985;-52
2022/05/03 15:04:19;;;;;;;;;;;20.70;36.00;;;;;;5056930;28;19921;-52
2022/05/03 15:06:47;;;;;;;;;;;20.70;36.00;;;;;;5075748;28;19920;-51
2022/05/03 15:09:14;;;;;;;;;;;20.70;35.90;;;;;;5057881;28;19966;-52
2022/05/03 15:11:41;;;;;;;;;;;20.60;35.70;;;;;;5057038;28;20281;-53
2022/05/03 15:14:08;;;;;;;;;;;20.60;35.50;;;;;;5075517;28;19927;-54
2022/05/03 15:16:34;;;;;;;;;;;20.60;35.60;;;;;;5057573;28;19974;-54